sensor_id;sensor_type;location;lat;lon;timestamp;temperature;humidity
12089;DHT22;6107;49.078;8.578;2023-02-28T00:02:16;-0.10;99.90
12089;DHT22;6107;49.078;8.578;2023-02-28T00:04:43;-0.10;99.90
12089;DHT22;6107;49.078;8.578;2023-02-28T00:07:09;-0.10;99.90
12089;DHT22;6107;49.078;8.578;2023-02-28T00:09:34;-0.20;99.90
12089;DHT22;6107;49.078;8.578;2023-02-28T00:12:00;-0.20;99.90
12089;DHT22;6107;49.078;8.578;2023-02-28T00:14:35;-0.10;99.90
12089;DHT22;6107;49.078;8.578;2023-02-28T00:17:01;0.00;99.90
12089;DHT22;6107;49.078;8.578;2023-02-28T00:19:26;0.00;99.90
12089;DHT22;6107;49.078;8.578;2023-02-28T00:21:51;-0.10;99.90
12089;DHT22;6107;49.078;8.578;2023-02-28T00:24:17;0.00;99.90
12089;DHT22;6107;49.078;8.578;2023-02-28T00:26:42;-0.20;99.90
12089;DHT22;6107;49.078;8.578;2023-02-28T00:29:08;-0.10;99.90
12089;DHT22;6107;49.078;8.578;2023-02-28T00:31:33;-0.20;99.90
12089;DHT22;6107;49.078;8.578;2023-02-28T00:33:59;0.00;99.90
12089;DHT22;6107;49.078;8.578;2023-02-28T00:36:24;0.10;99.90
12089;DHT22;6107;49.078;8.578;2023-02-28T00:38:50;-0.10;99.90
12089;DHT22;6107;49.078;8.578;2023-02-28T00:41:15;-0.10;99.90
12089;DHT22;6107;49.078;8.578;2023-02-28T00:43:41;-0.20;99.90
12089;DHT22;6107;49.078;8.578;2023-02-28T00:46:07;0.20;99.90
12089;DHT22;6107;49.078;8.578;2023-02-28T00:48:32;0.20;99.90
12089;DHT22;6107;49.078;8.578;2023-02-28T00:50:58;0.10;99.90
12089;DHT22;6107;49.078;8.578;2023-02-28T00:53:24;0.00;99.90
12089;DHT22;6107;49.078;8.578;2023-02-28T00:55:50;0.10;99.90
12089;DHT22;6107;49.078;8.578;2023-02-28T00:58:16;0.10;99.90
12089;DHT22;6107;49.078;8.578;2023-02-28T01:00:41;0.10;99.90
12089;DHT22;6107;49.078;8.578;2023-02-28T01:03:07;0.00;99.90
12089;DHT22;6107;49.078;8.578;2023-02-28T01:05:32;-0.10;99.90
12089;DHT22;6107;49.078;8.578;2023-02-28T01:07:58;-0.10;99.90
12089;DHT22;6107;49.078;8.578;2023-02-28T01:10:24;-0.20;99.90
12089;DHT22;6107;49.078;8.578;2023-02-28T01:12:50;0.00;99.90
12089;DHT22;6107;49.078;8.578;2023-02-28T01:15:15;0.10;99.90
12089;DHT22;6107;49.078;8.578;2023-02-28T01:17:41;0.00;99.90
12089;DHT22;6107;49.078;8.578;2023-02-28T01:20:07;-0.10;99.90
12089;DHT22;6107;49.078;8.578;2023-02-28T01:22:34;-0.10;99.90
12089;DHT22;6107;49.078;8.578;2023-02-28T01:24:59;-0.10;99.90
12089;DHT22;6107;49.078;8.578;2023-02-28T01:27:25;-0.30;99.90
12089;DHT22;6107;49.078;8.578;2023-02-28T01:29:51;-0.30;99.90
12089;DHT22;6107;49.078;8.578;2023-02-28T01:32:17;-0.30;99.90
12089;DHT22;6107;49.078;8.578;2023-02-28T01:34:42;-0.30;99.90
12089;DHT22;6107;49.078;8.578;2023-02-28T01:37:08;-0.10;99.90
12089;DHT22;6107;49.078;8.578;2023-02-28T01:39:33;-0.20;99.90
12089;DHT22;6107;49.078;8.578;2023-02-28T01:41:59;-0.20;99.90
12089;DHT22;6107;49.078;8.578;2023-02-28T01:47:22;-0.40;99.90
12089;DHT22;6107;49.078;8.578;2023-02-28T01:49:50;-0.50;99.90
12089;DHT22;6107;49.078;8.578;2023-02-28T01:52:17;-0.50;99.90
12089;DHT22;6107;49.078;8.578;2023-02-28T01:54:46;-0.40;99.90
12089;DHT22;6107;49.078;8.578;2023-02-28T01:57:19;-0.50;99.90
12089;DHT22;6107;49.078;8.578;2023-02-28T01:59:55;-0.50;99.90
12089;DHT22;6107;49.078;8.578;2023-02-28T02:02:24;-0.30;99.90
12089;DHT22;6107;49.078;8.578;2023-02-28T02:05:08;-0.30;99.90
12089;DHT22;6107;49.078;8.578;2023-02-28T02:07:36;-0.50;99.90
12089;DHT22;6107;49.078;8.578;2023-02-28T02:10:13;-0.50;99.90
12089;DHT22;6107;49.078;8.578;2023-02-28T02:16:04;-0.50;99.90
12089;DHT22;6107;49.078;8.578;2023-02-28T02:18:46;-0.50;99.90
12089;DHT22;6107;49.078;8.578;2023-02-28T02:27:16;-0.60;99.90
12089;DHT22;6107;49.078;8.578;2023-02-28T02:38:00;-0.50;99.90
12089;DHT22;6107;49.078;8.578;2023-02-28T02:40:32;-0.60;99.90
12089;DHT22;6107;49.078;8.578;2023-02-28T02:43:08;-0.70;99.90
12089;DHT22;6107;49.078;8.578;2023-02-28T02:45:59;-0.70;99.90
12089;DHT22;6107;49.078;8.578;2023-02-28T02:48:30;-0.80;99.90
12089;DHT22;6107;49.078;8.578;2023-02-28T02:51:01;-0.90;99.90
12089;DHT22;6107;49.078;8.578;2023-02-28T02:53:32;-0.80;99.90
12089;DHT22;6107;49.078;8.578;2023-02-28T02:55:59;-0.70;99.90
12089;DHT22;6107;49.078;8.578;2023-02-28T02:58:31;-0.90;99.90
12089;DHT22;6107;49.078;8.578;2023-02-28T03:01:00;-0.80;99.90
12089;DHT22;6107;49.078;8.578;2023-02-28T03:03:28;-0.70;99.90
12089;DHT22;6107;49.078;8.578;2023-02-28T03:05:56;-0.80;99.90
12089;DHT22;6107;49.078;8.578;2023-02-28T03:08:22;-0.90;99.90
12089;DHT22;6107;49.078;8.578;2023-02-28T03:10:59;-0.90;99.90
12089;DHT22;6107;49.078;8.578;2023-02-28T03:21:58;-0.80;99.90
12089;DHT22;6107;49.078;8.578;2023-02-28T03:24:52;-0.70;99.90
12089;DHT22;6107;49.078;8.578;2023-02-28T03:27:32;-0.90;99.90
12089;DHT22;6107;49.078;8.578;2023-02-28T03:30:10;-0.70;99.90
12089;DHT22;6107;49.078;8.578;2023-02-28T03:35:32;-0.70;99.90
12089;DHT22;6107;49.078;8.578;2023-02-28T03:38:05;-0.80;99.90
12089;DHT22;6107;49.078;8.578;2023-02-28T03:40:33;-0.80;99.90
12089;DHT22;6107;49.078;8.578;2023-02-28T03:43:07;-0.70;99.90
12089;DHT22;6107;49.078;8.578;2023-02-28T03:45:37;-0.80;99.90
12089;DHT22;6107;49.078;8.578;2023-02-28T03:48:13;-0.80;99.90
12089;DHT22;6107;49.078;8.578;2023-02-28T03:50:42;-0.90;99.90
12089;DHT22;6107;49.078;8.578;2023-02-28T03:53:21;-0.90;99.90
12089;DHT22;6107;49.078;8.578;2023-02-28T03:55:55;-0.70;99.90
12089;DHT22;6107;49.078;8.578;2023-02-28T03:58:35;-0.70;99.90
12089;DHT22;6107;49.078;8.578;2023-02-28T04:03:59;-0.70;99.90
12089;DHT22;6107;49.078;8.578;2023-02-28T04:06:24;-0.70;99.90
12089;DHT22;6107;49.078;8.578;2023-02-28T04:08:50;-0.60;99.90
12089;DHT22;6107;49.078;8.578;2023-02-28T04:11:27;-0.60;99.90
12089;DHT22;6107;49.078;8.578;2023-02-28T04:13:56;-0.60;99.90
12089;DHT22;6107;49.078;8.578;2023-02-28T04:16:22;-0.70;99.90
12089;DHT22;6107;49.078;8.578;2023-02-28T04:18:48;-0.70;99.90
12089;DHT22;6107;49.078;8.578;2023-02-28T04:21:14;-0.60;99.90
12089;DHT22;6107;49.078;8.578;2023-02-28T04:23:39;-0.60;99.90
12089;DHT22;6107;49.078;8.578;2023-02-28T04:26:05;-0.50;99.90
12089;DHT22;6107;49.078;8.578;2023-02-28T04:28:32;-0.50;99.90
12089;DHT22;6107;49.078;8.578;2023-02-28T04:30:59;-0.50;99.90
12089;DHT22;6107;49.078;8.578;2023-02-28T04:33:24;-0.50;99.90
12089;DHT22;6107;49.078;8.578;2023-02-28T04:36:04;-0.40;99.90
12089;DHT22;6107;49.078;8.578;2023-02-28T04:38:34;-0.40;99.90
12089;DHT22;6107;49.078;8.578;2023-02-28T04:41:00;-0.50;99.90
12089;DHT22;6107;49.078;8.578;2023-02-28T04:43:27;-0.60;99.90
12089;DHT22;6107;49.078;8.578;2023-02-28T04:45:52;-0.60;99.90
12089;DHT22;6107;49.078;8.578;2023-02-28T04:48:22;-0.40;99.90
12089;DHT22;6107;49.078;8.578;2023-02-28T04:50:48;-0.40;99.90
12089;DHT22;6107;49.078;8.578;2023-02-28T04:53:13;-0.50;99.90
12089;DHT22;6107;49.078;8.578;2023-02-28T04:55:39;-0.50;99.90
12089;DHT22;6107;49.078;8.578;2023-02-28T04:58:05;-0.50;99.90
12089;DHT22;6107;49.078;8.578;2023-02-28T05:00:31;-0.50;99.90
12089;DHT22;6107;49.078;8.578;2023-02-28T05:02:56;-0.60;99.90
12089;DHT22;6107;49.078;8.578;2023-02-28T05:05:22;-0.60;99.90
12089;DHT22;6107;49.078;8.578;2023-02-28T05:07:47;-0.60;99.90
12089;DHT22;6107;49.078;8.578;2023-02-28T05:10:13;-0.60;99.90
12089;DHT22;6107;49.078;8.578;2023-02-28T05:12:38;-0.60;99.90
12089;DHT22;6107;49.078;8.578;2023-02-28T05:15:04;-0.70;99.90
12089;DHT22;6107;49.078;8.578;2023-02-28T05:17:30;-0.60;99.90
12089;DHT22;6107;49.078;8.578;2023-02-28T05:19:56;-0.60;99.90
12089;DHT22;6107;49.078;8.578;2023-02-28T05:22:22;-0.60;99.90
12089;DHT22;6107;49.078;8.578;2023-02-28T05:24:47;-0.70;99.90
12089;DHT22;6107;49.078;8.578;2023-02-28T05:27:13;-0.60;99.90
12089;DHT22;6107;49.078;8.578;2023-02-28T05:29:38;-0.70;99.90
12089;DHT22;6107;49.078;8.578;2023-02-28T05:32:11;-0.60;99.90
12089;DHT22;6107;49.078;8.578;2023-02-28T05:34:38;-0.60;99.90
12089;DHT22;6107;49.078;8.578;2023-02-28T05:37:04;-0.50;99.90
12089;DHT22;6107;49.078;8.578;2023-02-28T05:39:30;-0.60;99.90
12089;DHT22;6107;49.078;8.578;2023-02-28T05:41:55;-0.60;99.90
12089;DHT22;6107;49.078;8.578;2023-02-28T05:44:21;-0.60;99.90
12089;DHT22;6107;49.078;8.578;2023-02-28T05:46:46;-0.60;99.90
12089;DHT22;6107;49.078;8.578;2023-02-28T05:49:12;-0.70;99.90
12089;DHT22;6107;49.078;8.578;2023-02-28T05:51:37;-0.50;99.90
12089;DHT22;6107;49.078;8.578;2023-02-28T05:54:05;-0.50;99.90
12089;DHT22;6107;49.078;8.578;2023-02-28T05:56:30;-0.50;99.90
12089;DHT22;6107;49.078;8.578;2023-02-28T05:58:56;-0.40;99.90
12089;DHT22;6107;49.078;8.578;2023-02-28T06:01:42;-0.50;99.90
12089;DHT22;6107;49.078;8.578;2023-02-28T06:04:14;-0.50;99.90
12089;DHT22;6107;49.078;8.578;2023-02-28T06:06:43;-0.50;99.90
12089;DHT22;6107;49.078;8.578;2023-02-28T06:09:09;-0.40;99.90
12089;DHT22;6107;49.078;8.578;2023-02-28T06:11:34;-0.40;99.90
12089;DHT22;6107;49.078;8.578;2023-02-28T06:14:00;-0.40;99.90
12089;DHT22;6107;49.078;8.578;2023-02-28T06:16:27;-0.40;99.90
12089;DHT22;6107;49.078;8.578;2023-02-28T06:18:53;-0.50;99.90
12089;DHT22;6107;49.078;8.578;2023-02-28T06:21:21;-0.40;99.90
12089;DHT22;6107;49.078;8.578;2023-02-28T06:23:47;-0.40;99.90
12089;DHT22;6107;49.078;8.578;2023-02-28T06:26:13;-0.50;99.90
12089;DHT22;6107;49.078;8.578;2023-02-28T06:28:38;-0.40;99.90
12089;DHT22;6107;49.078;8.578;2023-02-28T06:31:09;-0.40;99.90
12089;DHT22;6107;49.078;8.578;2023-02-28T06:33:36;-0.50;99.90
12089;DHT22;6107;49.078;8.578;2023-02-28T06:36:02;-0.30;99.90
12089;DHT22;6107;49.078;8.578;2023-02-28T06:38:28;-0.20;99.90
12089;DHT22;6107;49.078;8.578;2023-02-28T06:40:55;-0.20;99.90
12089;DHT22;6107;49.078;8.578;2023-02-28T06:43:21;-0.10;99.90
12089;DHT22;6107;49.078;8.578;2023-02-28T06:45:46;-0.20;99.90
12089;DHT22;6107;49.078;8.578;2023-02-28T06:48:12;0.00;99.90
12089;DHT22;6107;49.078;8.578;2023-02-28T06:50:38;-0.10;99.90
12089;DHT22;6107;49.078;8.578;2023-02-28T06:53:03;0.00;99.90
12089;DHT22;6107;49.078;8.578;2023-02-28T06:55:29;0.00;99.90
12089;DHT22;6107;49.078;8.578;2023-02-28T06:57:54;0.00;99.90
12089;DHT22;6107;49.078;8.578;2023-02-28T07:00:20;0.20;99.90
12089;DHT22;6107;49.078;8.578;2023-02-28T07:02:46;-0.10;99.90
12089;DHT22;6107;49.078;8.578;2023-02-28T07:05:12;-0.20;99.90
12089;DHT22;6107;49.078;8.578;2023-02-28T07:07:38;0.00;99.90
12089;DHT22;6107;49.078;8.578;2023-02-28T07:10:09;-0.10;99.90
12089;DHT22;6107;49.078;8.578;2023-02-28T07:12:36;0.00;99.90
12089;DHT22;6107;49.078;8.578;2023-02-28T07:15:06;0.00;99.90
12089;DHT22;6107;49.078;8.578;2023-02-28T07:17:32;0.10;99.90
12089;DHT22;6107;49.078;8.578;2023-02-28T07:19:58;-0.10;99.90
12089;DHT22;6107;49.078;8.578;2023-02-28T07:22:23;0.00;99.90
12089;DHT22;6107;49.078;8.578;2023-02-28T07:24:50;0.00;99.90
12089;DHT22;6107;49.078;8.578;2023-02-28T07:27:15;0.00;99.90
12089;DHT22;6107;49.078;8.578;2023-02-28T07:29:49;0.00;99.90
12089;DHT22;6107;49.078;8.578;2023-02-28T07:32:15;-0.10;99.90
12089;DHT22;6107;49.078;8.578;2023-02-28T07:34:40;0.00;99.90
12089;DHT22;6107;49.078;8.578;2023-02-28T07:37:06;0.00;99.90
12089;DHT22;6107;49.078;8.578;2023-02-28T07:39:31;0.00;99.90
12089;DHT22;6107;49.078;8.578;2023-02-28T07:41:57;0.10;99.90
12089;DHT22;6107;49.078;8.578;2023-02-28T07:44:22;0.10;99.90
12089;DHT22;6107;49.078;8.578;2023-02-28T07:46:48;0.00;99.90
12089;DHT22;6107;49.078;8.578;2023-02-28T07:49:13;0.00;99.90
12089;DHT22;6107;49.078;8.578;2023-02-28T07:51:39;0.00;99.90
12089;DHT22;6107;49.078;8.578;2023-02-28T07:54:04;0.10;99.90
12089;DHT22;6107;49.078;8.578;2023-02-28T07:56:30;0.20;99.90
12089;DHT22;6107;49.078;8.578;2023-02-28T07:58:56;0.20;99.90
12089;DHT22;6107;49.078;8.578;2023-02-28T08:01:21;0.20;99.90
12089;DHT22;6107;49.078;8.578;2023-02-28T08:03:47;0.30;99.90
12089;DHT22;6107;49.078;8.578;2023-02-28T08:06:20;0.30;99.90
12089;DHT22;6107;49.078;8.578;2023-02-28T08:08:47;0.40;99.90
12089;DHT22;6107;49.078;8.578;2023-02-28T08:11:13;0.50;99.90
12089;DHT22;6107;49.078;8.578;2023-02-28T08:13:38;0.50;99.90
12089;DHT22;6107;49.078;8.578;2023-02-28T08:16:04;0.50;99.90
12089;DHT22;6107;49.078;8.578;2023-02-28T08:18:30;0.50;99.90
12089;DHT22;6107;49.078;8.578;2023-02-28T08:20:55;0.50;99.90
12089;DHT22;6107;49.078;8.578;2023-02-28T08:23:21;0.50;99.90
12089;DHT22;6107;49.078;8.578;2023-02-28T08:25:54;0.40;99.90
12089;DHT22;6107;49.078;8.578;2023-02-28T08:28:20;0.60;99.90
12089;DHT22;6107;49.078;8.578;2023-02-28T08:30:45;0.50;99.90
12089;DHT22;6107;49.078;8.578;2023-02-28T08:33:11;0.70;99.90
12089;DHT22;6107;49.078;8.578;2023-02-28T08:35:36;0.70;99.90
12089;DHT22;6107;49.078;8.578;2023-02-28T08:38:02;0.60;99.90
12089;DHT22;6107;49.078;8.578;2023-02-28T08:40:28;0.90;99.90
12089;DHT22;6107;49.078;8.578;2023-02-28T08:42:53;1.00;99.90
12089;DHT22;6107;49.078;8.578;2023-02-28T08:45:19;0.70;99.90
12089;DHT22;6107;49.078;8.578;2023-02-28T08:47:44;0.70;99.90
12089;DHT22;6107;49.078;8.578;2023-02-28T08:50:10;0.90;99.90
12089;DHT22;6107;49.078;8.578;2023-02-28T08:52:36;1.00;99.90
12089;DHT22;6107;49.078;8.578;2023-02-28T08:55:01;1.10;99.90
12089;DHT22;6107;49.078;8.578;2023-02-28T08:57:27;1.20;99.90
12089;DHT22;6107;49.078;8.578;2023-02-28T08:59:52;1.10;99.90
12089;DHT22;6107;49.078;8.578;2023-02-28T09:02:18;1.50;99.90
12089;DHT22;6107;49.078;8.578;2023-02-28T09:04:43;1.40;99.90
12089;DHT22;6107;49.078;8.578;2023-02-28T09:07:12;1.40;99.90
12089;DHT22;6107;49.078;8.578;2023-02-28T09:09:38;1.60;99.90
12089;DHT22;6107;49.078;8.578;2023-02-28T09:12:19;1.90;99.90
12089;DHT22;6107;49.078;8.578;2023-02-28T09:14:45;2.00;99.90
12089;DHT22;6107;49.078;8.578;2023-02-28T09:17:10;2.20;99.90
12089;DHT22;6107;49.078;8.578;2023-02-28T09:19:36;2.10;99.90
12089;DHT22;6107;49.078;8.578;2023-02-28T09:22:02;2.10;99.90
12089;DHT22;6107;49.078;8.578;2023-02-28T09:24:27;2.30;99.90
12089;DHT22;6107;49.078;8.578;2023-02-28T09:26:53;2.60;99.90
12089;DHT22;6107;49.078;8.578;2023-02-28T09:29:18;2.80;99.90
12089;DHT22;6107;49.078;8.578;2023-02-28T09:31:44;2.80;99.90
12089;DHT22;6107;49.078;8.578;2023-02-28T09:34:09;3.00;99.90
12089;DHT22;6107;49.078;8.578;2023-02-28T09:36:35;3.10;99.90
12089;DHT22;6107;49.078;8.578;2023-02-28T09:39:04;3.50;99.90
12089;DHT22;6107;49.078;8.578;2023-02-28T09:41:41;3.40;99.90
12089;DHT22;6107;49.078;8.578;2023-02-28T09:46:48;3.50;99.90
12089;DHT22;6107;49.078;8.578;2023-02-28T09:49:19;3.80;99.90
12089;DHT22;6107;49.078;8.578;2023-02-28T09:52:06;3.80;99.90
12089;DHT22;6107;49.078;8.578;2023-02-28T09:54:35;3.80;99.90
12089;DHT22;6107;49.078;8.578;2023-02-28T10:02:32;3.60;99.90
12089;DHT22;6107;49.078;8.578;2023-02-28T10:05:09;3.40;99.90
12089;DHT22;6107;49.078;8.578;2023-02-28T10:10:47;3.40;99.90
12089;DHT22;6107;49.078;8.578;2023-02-28T10:15:48;4.20;99.90
12089;DHT22;6107;49.078;8.578;2023-02-28T10:18:21;4.00;99.90
12089;DHT22;6107;49.078;8.578;2023-02-28T10:20:49;4.20;99.90
12089;DHT22;6107;49.078;8.578;2023-02-28T10:26:11;5.00;99.90
12089;DHT22;6107;49.078;8.578;2023-02-28T10:28:37;4.90;99.90
12089;DHT22;6107;49.078;8.578;2023-02-28T10:31:03;5.10;99.90
12089;DHT22;6107;49.078;8.578;2023-02-28T10:33:31;5.00;99.30
12089;DHT22;6107;49.078;8.578;2023-02-28T10:35:57;4.30;99.90
12089;DHT22;6107;49.078;8.578;2023-02-28T10:38:26;4.50;99.90
12089;DHT22;6107;49.078;8.578;2023-02-28T10:41:13;4.30;99.90
12089;DHT22;6107;49.078;8.578;2023-02-28T10:43:40;5.10;99.90
12089;DHT22;6107;49.078;8.578;2023-02-28T10:48:39;5.30;99.90
12089;DHT22;6107;49.078;8.578;2023-02-28T10:51:11;5.10;98.60
12089;DHT22;6107;49.078;8.578;2023-02-28T10:58:46;4.60;99.90
12089;DHT22;6107;49.078;8.578;2023-02-28T11:01:15;4.30;99.90
12089;DHT22;6107;49.078;8.578;2023-02-28T11:03:41;4.00;99.90
12089;DHT22;6107;49.078;8.578;2023-02-28T11:06:21;3.80;99.90
12089;DHT22;6107;49.078;8.578;2023-02-28T11:08:54;3.80;99.90
12089;DHT22;6107;49.078;8.578;2023-02-28T11:11:22;3.80;99.90
12089;DHT22;6107;49.078;8.578;2023-02-28T11:13:52;4.00;99.90
12089;DHT22;6107;49.078;8.578;2023-02-28T11:16:18;4.50;99.90
12089;DHT22;6107;49.078;8.578;2023-02-28T11:18:48;4.00;99.90
12089;DHT22;6107;49.078;8.578;2023-02-28T11:21:30;4.20;99.90
12089;DHT22;6107;49.078;8.578;2023-02-28T11:24:12;4.30;99.90
12089;DHT22;6107;49.078;8.578;2023-02-28T11:26:45;4.40;99.90
12089;DHT22;6107;49.078;8.578;2023-02-28T11:31:42;4.40;99.90
12089;DHT22;6107;49.078;8.578;2023-02-28T11:34:24;4.10;99.90
12089;DHT22;6107;49.078;8.578;2023-02-28T11:36:52;4.00;99.90
12089;DHT22;6107;49.078;8.578;2023-02-28T11:39:19;3.90;99.90
12089;DHT22;6107;49.078;8.578;2023-02-28T11:47:38;4.20;99.90
12089;DHT22;6107;49.078;8.578;2023-02-28T11:53:01;4.20;99.90
12089;DHT22;6107;49.078;8.578;2023-02-28T11:55:45;4.40;99.90
12089;DHT22;6107;49.078;8.578;2023-02-28T12:07:14;5.10;98.70
12089;DHT22;6107;49.078;8.578;2023-02-28T12:10:04;5.10;99.70
12089;DHT22;6107;49.078;8.578;2023-02-28T12:15:56;5.10;99.00
12089;DHT22;6107;49.078;8.578;2023-02-28T12:18:59;5.40;99.00
12089;DHT22;6107;49.078;8.578;2023-02-28T12:21:36;5.40;97.50
12089;DHT22;6107;49.078;8.578;2023-02-28T12:24:26;5.50;97.40
12089;DHT22;6107;49.078;8.578;2023-02-28T12:26:55;5.40;96.60
12089;DHT22;6107;49.078;8.578;2023-02-28T12:29:23;5.40;95.40
12089;DHT22;6107;49.078;8.578;2023-02-28T12:31:58;5.50;96.40
12089;DHT22;6107;49.078;8.578;2023-02-28T12:34:33;5.90;96.70
12089;DHT22;6107;49.078;8.578;2023-02-28T12:37:06;6.10;95.30
12089;DHT22;6107;49.078;8.578;2023-02-28T12:39:37;6.20;95.60
12089;DHT22;6107;49.078;8.578;2023-02-28T12:42:10;6.60;94.50
12089;DHT22;6107;49.078;8.578;2023-02-28T12:44:44;6.30;93.80
12089;DHT22;6107;49.078;8.578;2023-02-28T12:47:16;5.90;94.30
12089;DHT22;6107;49.078;8.578;2023-02-28T12:50:00;5.60;95.10
12089;DHT22;6107;49.078;8.578;2023-02-28T12:52:40;5.80;96.40
12089;DHT22;6107;49.078;8.578;2023-02-28T13:01:05;6.60;95.20
12089;DHT22;6107;49.078;8.578;2023-02-28T13:09:08;6.80;92.50
12089;DHT22;6107;49.078;8.578;2023-02-28T13:11:42;6.90;92.40
12089;DHT22;6107;49.078;8.578;2023-02-28T13:14:29;7.40;93.70
12089;DHT22;6107;49.078;8.578;2023-02-28T13:20:14;6.70;98.20
12089;DHT22;6107;49.078;8.578;2023-02-28T13:25:00;6.90;92.90
12089;DHT22;6107;49.078;8.578;2023-02-28T13:27:37;7.50;90.90
12089;DHT22;6107;49.078;8.578;2023-02-28T13:33:25;6.90;90.00
12089;DHT22;6107;49.078;8.578;2023-02-28T13:38:44;7.60;91.70
12089;DHT22;6107;49.078;8.578;2023-02-28T13:44:22;7.80;87.80
12089;DHT22;6107;49.078;8.578;2023-02-28T13:49:23;7.70;89.00
12089;DHT22;6107;49.078;8.578;2023-02-28T13:54:26;7.20;90.70
12089;DHT22;6107;49.078;8.578;2023-02-28T13:57:05;8.10;88.60
12089;DHT22;6107;49.078;8.578;2023-02-28T13:59:50;8.90;85.10
12089;DHT22;6107;49.078;8.578;2023-02-28T14:02:36;8.10;86.20
12089;DHT22;6107;49.078;8.578;2023-02-28T14:05:12;8.70;83.40
12089;DHT22;6107;49.078;8.578;2023-02-28T14:07:50;8.20;83.80
12089;DHT22;6107;49.078;8.578;2023-02-28T14:15:36;7.00;90.90
12089;DHT22;6107;49.078;8.578;2023-02-28T14:18:23;7.40;92.30
12089;DHT22;6107;49.078;8.578;2023-02-28T14:20:54;7.40;89.80
12089;DHT22;6107;49.078;8.578;2023-02-28T14:26:37;6.90;91.20
12089;DHT22;6107;49.078;8.578;2023-02-28T14:29:27;7.10;91.60
12089;DHT22;6107;49.078;8.578;2023-02-28T14:37:30;6.90;92.30
12089;DHT22;6107;49.078;8.578;2023-02-28T14:39:59;6.90;92.30
12089;DHT22;6107;49.078;8.578;2023-02-28T14:42:37;6.90;92.20
12089;DHT22;6107;49.078;8.578;2023-02-28T14:45:04;6.60;91.40
12089;DHT22;6107;49.078;8.578;2023-02-28T14:47:34;6.70;92.90
12089;DHT22;6107;49.078;8.578;2023-02-28T14:50:00;6.60;93.20
12089;DHT22;6107;49.078;8.578;2023-02-28T14:52:31;6.90;91.30
12089;DHT22;6107;49.078;8.578;2023-02-28T14:55:00;7.00;91.00
12089;DHT22;6107;49.078;8.578;2023-02-28T14:57:30;6.80;91.90
12089;DHT22;6107;49.078;8.578;2023-02-28T15:00:20;6.30;93.20
12089;DHT22;6107;49.078;8.578;2023-02-28T15:02:46;6.90;91.70
12089;DHT22;6107;49.078;8.578;2023-02-28T15:07:37;6.90;91.90
12089;DHT22;6107;49.078;8.578;2023-02-28T15:10:24;7.20;91.50
12089;DHT22;6107;49.078;8.578;2023-02-28T15:15:19;7.40;91.00
12089;DHT22;6107;49.078;8.578;2023-02-28T15:17:52;7.40;90.40
12089;DHT22;6107;49.078;8.578;2023-02-28T15:20:19;7.90;89.80
12089;DHT22;6107;49.078;8.578;2023-02-28T15:22:46;7.60;89.20
12089;DHT22;6107;49.078;8.578;2023-02-28T15:25:15;7.00;90.00
12089;DHT22;6107;49.078;8.578;2023-02-28T15:27:52;7.00;91.00
12089;DHT22;6107;49.078;8.578;2023-02-28T15:30:25;7.50;88.90
12089;DHT22;6107;49.078;8.578;2023-02-28T15:35:31;7.10;91.00
12089;DHT22;6107;49.078;8.578;2023-02-28T15:38:01;7.20;89.60
12089;DHT22;6107;49.078;8.578;2023-02-28T15:40:36;6.90;91.30
12089;DHT22;6107;49.078;8.578;2023-02-28T15:43:06;6.80;90.50
12089;DHT22;6107;49.078;8.578;2023-02-28T15:45:44;6.70;91.00
12089;DHT22;6107;49.078;8.578;2023-02-28T15:48:22;6.80;91.20
12089;DHT22;6107;49.078;8.578;2023-02-28T15:50:56;6.60;91.90
12089;DHT22;6107;49.078;8.578;2023-02-28T15:53:35;7.00;90.80
12089;DHT22;6107;49.078;8.578;2023-02-28T15:56:19;7.10;89.00
12089;DHT22;6107;49.078;8.578;2023-02-28T15:58:46;7.20;90.40
12089;DHT22;6107;49.078;8.578;2023-02-28T16:01:20;7.50;89.70
12089;DHT22;6107;49.078;8.578;2023-02-28T16:03:51;7.30;89.90
12089;DHT22;6107;49.078;8.578;2023-02-28T16:06:24;7.20;92.40
12089;DHT22;6107;49.078;8.578;2023-02-28T16:08:51;6.80;92.10
12089;DHT22;6107;49.078;8.578;2023-02-28T16:11:19;6.90;92.30
12089;DHT22;6107;49.078;8.578;2023-02-28T16:13:45;6.90;90.10
12089;DHT22;6107;49.078;8.578;2023-02-28T16:16:18;6.60;92.10
12089;DHT22;6107;49.078;8.578;2023-02-28T16:18:44;6.50;91.90
12089;DHT22;6107;49.078;8.578;2023-02-28T16:21:10;6.30;92.40
12089;DHT22;6107;49.078;8.578;2023-02-28T16:23:35;6.80;98.40
12089;DHT22;6107;49.078;8.578;2023-02-28T16:26:03;6.60;92.10
12089;DHT22;6107;49.078;8.578;2023-02-28T16:28:35;6.10;95.60
12089;DHT22;6107;49.078;8.578;2023-02-28T16:31:03;6.10;99.90
12089;DHT22;6107;49.078;8.578;2023-02-28T16:33:33;6.00;98.20
12089;DHT22;6107;49.078;8.578;2023-02-28T16:35:59;5.80;96.70
12089;DHT22;6107;49.078;8.578;2023-02-28T16:38:25;6.00;96.10
12089;DHT22;6107;49.078;8.578;2023-02-28T16:40:52;5.90;96.80
12089;DHT22;6107;49.078;8.578;2023-02-28T16:43:24;5.50;96.90
12089;DHT22;6107;49.078;8.578;2023-02-28T16:45:55;5.90;97.30
12089;DHT22;6107;49.078;8.578;2023-02-28T16:48:21;5.90;96.80
12089;DHT22;6107;49.078;8.578;2023-02-28T16:53:13;5.70;97.10
12089;DHT22;6107;49.078;8.578;2023-02-28T16:55:38;5.50;97.20
12089;DHT22;6107;49.078;8.578;2023-02-28T16:58:04;5.40;97.80
12089;DHT22;6107;49.078;8.578;2023-02-28T17:00:31;5.50;98.20
12089;DHT22;6107;49.078;8.578;2023-02-28T17:02:57;5.20;98.20
12089;DHT22;6107;49.078;8.578;2023-02-28T17:05:25;5.20;98.90
12089;DHT22;6107;49.078;8.578;2023-02-28T17:07:51;5.20;98.80
12089;DHT22;6107;49.078;8.578;2023-02-28T17:10:17;5.20;98.20
12089;DHT22;6107;49.078;8.578;2023-02-28T17:12:43;5.00;99.40
12089;DHT22;6107;49.078;8.578;2023-02-28T17:15:11;4.90;99.60
12089;DHT22;6107;49.078;8.578;2023-02-28T17:20:03;5.00;98.70
12089;DHT22;6107;49.078;8.578;2023-02-28T17:22:28;4.50;99.90
12089;DHT22;6107;49.078;8.578;2023-02-28T17:24:54;4.50;99.90
12089;DHT22;6107;49.078;8.578;2023-02-28T17:27:24;4.60;99.90
12089;DHT22;6107;49.078;8.578;2023-02-28T17:29:50;4.60;99.90
12089;DHT22;6107;49.078;8.578;2023-02-28T17:32:16;4.40;99.90
12089;DHT22;6107;49.078;8.578;2023-02-28T17:34:41;4.40;99.90
12089;DHT22;6107;49.078;8.578;2023-02-28T17:37:09;4.30;99.90
12089;DHT22;6107;49.078;8.578;2023-02-28T17:39:35;4.20;99.90
12089;DHT22;6107;49.078;8.578;2023-02-28T17:42:00;4.20;99.90
12089;DHT22;6107;49.078;8.578;2023-02-28T17:44:26;4.20;99.90
12089;DHT22;6107;49.078;8.578;2023-02-28T17:46:53;4.10;99.90
12089;DHT22;6107;49.078;8.578;2023-02-28T17:49:19;3.90;99.90
12089;DHT22;6107;49.078;8.578;2023-02-28T17:51:45;3.70;99.90
12089;DHT22;6107;49.078;8.578;2023-02-28T17:54:11;3.70;99.90
12089;DHT22;6107;49.078;8.578;2023-02-28T17:56:36;3.70;99.90
12089;DHT22;6107;49.078;8.578;2023-02-28T17:59:02;3.70;99.90
12089;DHT22;6107;49.078;8.578;2023-02-28T18:01:28;3.50;99.90
12089;DHT22;6107;49.078;8.578;2023-02-28T18:03:55;3.50;99.90
12089;DHT22;6107;49.078;8.578;2023-02-28T18:06:26;3.50;99.90
12089;DHT22;6107;49.078;8.578;2023-02-28T18:08:53;3.50;99.90
12089;DHT22;6107;49.078;8.578;2023-02-28T18:11:20;3.40;99.90
12089;DHT22;6107;49.078;8.578;2023-02-28T18:13:48;3.20;99.90
12089;DHT22;6107;49.078;8.578;2023-02-28T18:16:15;3.50;99.90
12089;DHT22;6107;49.078;8.578;2023-02-28T18:18:41;3.40;99.90
12089;DHT22;6107;49.078;8.578;2023-02-28T18:21:08;3.30;99.90
12089;DHT22;6107;49.078;8.578;2023-02-28T18:23:34;3.20;99.90
12089;DHT22;6107;49.078;8.578;2023-02-28T18:25:59;3.30;99.90
12089;DHT22;6107;49.078;8.578;2023-02-28T18:28:25;3.10;99.90
12089;DHT22;6107;49.078;8.578;2023-02-28T18:30:50;3.00;99.90